M I D A S
Marine Information and Data Acquisition System
Tripno 1327 of the Zeeleeuw from 2007-08-30 07:01:54 to 2007-08-30 14:55:45
Back to CruiseResearch ActivitiesStationsMapUnderway DataData graphs

EquipmentUnitsComment
TimeDGPSUTC
LatitudeDGPSDM.mWGS84
LongitudeDGPSDM.mWGS84
HeadingGyrodeg 
SOGDGPSknotsSpeed over ground
COGDGPSdegCourse over ground
DepthEcho soundermeters200 kHz
Missing or incorrect values are displayed as -999
Navigation data collected by the RV Zeeleeuw from 2007-08-30 07:01:30 to 2007-08-30 15:06:31
                                                                                    Next 1000 lines
Time Latitude Longitude Heading SOG COG Depth
2007-08-30 07:01:40 51°13.601 2°56.096 111.7 0.5 287 6.6
2007-08-30 07:01:45 51°13.602 2°56.094 111.2 0.9 284 6.6
2007-08-30 07:01:50 51°13.602 2°56.091 111 1.3 290 6.8
2007-08-30 07:01:55 51°13.604 2°56.087 111.3 1.8 290 6.7
2007-08-30 07:02:00 51°13.605 2°56.082 112 2.3 292 6.9
2007-08-30 07:02:05 51°13.606 2°56.077 113 2.8 293 -999
2007-08-30 07:02:10 51°13.608 2°56.07 114.4 3 295 -999
2007-08-30 07:02:15 51°13.61 2°56.064 115.6 3.4 295 -999
2007-08-30 07:02:20 51°13.612 2°56.056 116 3.7 295 -999
2007-08-30 07:02:25 51°13.615 2°56.049 116.1 3.9 295 -999
2007-08-30 07:02:30 51°13.617 2°56.04 116.1 4.1 296 -999
2007-08-30 07:02:35 51°13.62 2°56.032 116.2 4.3 295 -999
2007-08-30 07:02:40 51°13.622 2°56.023 116.8 4.4 296 -999
2007-08-30 07:02:45 51°13.625 2°56.014 117.6 4.6 296 -999
2007-08-30 07:02:50 51°13.628 2°56.005 118.4 4.7 297 -999
2007-08-30 07:02:55 51°13.631 2°55.995 119 4.8 297 -999
2007-08-30 07:03:00 51°13.634 2°55.986 119.2 4.9 298 -999
2007-08-30 07:03:05 51°13.638 2°55.976 119.4 5 298 -999
2007-08-30 07:03:10 51°13.641 2°55.966 119.5 5.1 298 -999
2007-08-30 07:03:15 51°13.644 2°55.955 119.5 5.2 298 -999
2007-08-30 07:03:20 51°13.648 2°55.945 119.4 5.3 298 -999
2007-08-30 07:03:25 51°13.652 2°55.935 119 5.3 298 -999
2007-08-30 07:03:30 51°13.655 2°55.924 118.4 5.4 297 -999
2007-08-30 07:03:35 51°13.659 2°55.914 117.6 5.3 297 -999
2007-08-30 07:03:40 51°13.662 2°55.904 116.7 5.2 297 -999
2007-08-30 07:03:45 51°13.665 2°55.894 115.7 5 295 -999
2007-08-30 07:03:50 51°13.667 2°55.884 114.7 4.9 295 -999
2007-08-30 07:03:55 51°13.67 2°55.874 113.6 4.8 293 -999
2007-08-30 07:04:00 51°13.672 2°55.864 112.2 4.8 292 -999
2007-08-30 07:04:05 51°13.675 2°55.855 110.5 4.7 291 -999
2007-08-30 07:04:10 51°13.677 2°55.845 108.6 4.6 289 -999
2007-08-30 07:04:15 51°13.679 2°55.836 106.6 4.5 287 -999
2007-08-30 07:04:20 51°13.68 2°55.826 104.1 4.5 285 -999
2007-08-30 07:04:25 51°13.681 2°55.816 102.1 4.5 283 -999
2007-08-30 07:04:30 51°13.681 2°55.806 100.3 4.4 281 -999
2007-08-30 07:04:35 51°13.682 2°55.797 98.2 4.2 279 -999
2007-08-30 07:04:40 51°13.683 2°55.789 96.3 4 278 -999
2007-08-30 07:04:45 51°13.683 2°55.781 94.4 3.7 276 -999
2007-08-30 07:04:50 51°13.684 2°55.773 93.3 3.6 275 -999
2007-08-30 07:04:55 51°13.684 2°55.766 92.5 3.4 274 -999
2007-08-30 07:05:00 51°13.685 2°55.759 91.4 3.1 273 9.4
2007-08-30 07:05:05 51°13.685 2°55.753 90.6 2.7 273 9.6
2007-08-30 07:05:10 51°13.685 2°55.748 89.5 2.3 271 9.7
2007-08-30 07:05:14 51°13.685 2°55.745 88.2 2 272 9.5
2007-08-30 07:05:19 51°13.685 2°55.741 86.1 1.8 270 9.7
2007-08-30 07:05:24 51°13.685 2°55.738 83.7 1.5 270 9.9
2007-08-30 07:05:29 51°13.685 2°55.735 81.4 1.2 269 10.2
2007-08-30 07:05:34 51°13.685 2°55.733 78.8 0.8 272 10.6
2007-08-30 07:05:38 51°13.685 2°55.733 76 0.6 276 11
2007-08-30 07:05:43 51°13.686 2°55.732 72.9 0.4 292 11.3
2007-08-30 07:05:48 51°13.686 2°55.732 69.5 0.3 337 11.3
2007-08-30 07:05:53 51°13.687 2°55.732 65.5 0.4 17 11.1
2007-08-30 07:05:58 51°13.687 2°55.733 61 0.6 29 11.1
2007-08-30 07:06:02 51°13.688 2°55.734 56.4 0.7 34 11.1
2007-08-30 07:06:07 51°13.689 2°55.735 51.5 0.9 32 11.1
2007-08-30 07:06:12 51°13.69 2°55.736 46.4 1.1 33 11.2
2007-08-30 07:06:17 51°13.692 2°55.737 41.3 1.2 28 11.4
2007-08-30 07:06:22 51°13.694 2°55.739 36.1 1.4 27 11.2
2007-08-30 07:06:26 51°13.695 2°55.74 30.6 1.6 21 11.2
2007-08-30 07:06:31 51°13.698 2°55.741 25.2 1.8 16 11
2007-08-30 07:06:37 51°13.701 2°55.742 19.6 2 12 11.1
2007-08-30 07:06:42 51°13.704 2°55.742 13.9 2.3 5 11.2
2007-08-30 07:06:46 51°13.707 2°55.742 7.7 2.7 -999 11.5
2007-08-30 07:06:51 51°13.711 2°55.741 0.7 3.2 353 12.1
2007-08-30 07:06:56 51°13.716 2°55.739 353.1 3.8 345 11.6
2007-08-30 07:07:02 51°13.723 2°55.735 345.6 4.2 339 11.2
2007-08-30 07:07:06 51°13.728 2°55.732 339.1 4.5 334 11.2
2007-08-30 07:07:12 51°13.735 2°55.725 334.3 5.1 332 10.4
2007-08-30 07:07:16 51°13.741 2°55.72 331.5 5.8 329 10
2007-08-30 07:07:22 51°13.75 2°55.711 330.7 6.4 329 9.8
2007-08-30 07:07:27 51°13.758 2°55.703 330.9 6.9 330 9.7
2007-08-30 07:07:32 51°13.767 2°55.695 330.8 7.4 328 9.6
2007-08-30 07:07:37 51°13.776 2°55.686 330.6 7.8 330 9.5
2007-08-30 07:07:42 51°13.786 2°55.677 331.6 8.1 330 9.5
2007-08-30 07:07:47 51°13.797 2°55.668 333.3 8.4 332 9.4
2007-08-30 07:07:51 51°13.805 2°55.662 334.4 8.6 332 9.6
2007-08-30 07:07:57 51°13.818 2°55.651 334.2 8.8 332 9.6
2007-08-30 07:08:02 51°13.829 2°55.642 334.1 8.9 333 9.7
2007-08-30 07:08:06 51°13.838 2°55.634 334.6 9.1 333 9.6
2007-08-30 07:08:12 51°13.852 2°55.623 335.3 9.2 334 9.5
2007-08-30 07:08:17 51°13.863 2°55.613 335.6 9.4 333 9.4
2007-08-30 07:08:22 51°13.875 2°55.603 335.7 9.5 334 9.4
2007-08-30 07:08:26 51°13.885 2°55.596 336 9.5 334 9.6
2007-08-30 07:08:32 51°13.899 2°55.586 336.3 9.6 334 9.8
2007-08-30 07:08:37 51°13.911 2°55.577 336.8 9.6 335 10
2007-08-30 07:08:42 51°13.924 2°55.567 336.8 9.7 334 9.6
2007-08-30 07:08:46 51°13.934 2°55.56 337.4 9.8 336 9.6
2007-08-30 07:08:51 51°13.946 2°55.551 338.2 9.8 336 9.4
2007-08-30 07:08:57 51°13.961 2°55.541 338.3 9.8 336 9.3
2007-08-30 07:09:02 51°13.973 2°55.532 338.2 9.9 336 9.4
2007-08-30 07:09:06 51°13.983 2°55.525 339 9.8 337 9.3
2007-08-30 07:09:12 51°13.998 2°55.515 339.4 9.9 336 9.4
2007-08-30 07:09:16 51°14.008 2°55.507 338.8 9.9 336 9.4
2007-08-30 07:09:22 51°14.023 2°55.497 338.5 9.8 336 9.3
2007-08-30 07:09:27 51°14.036 2°55.488 338.9 9.8 337 9.1
2007-08-30 07:09:31 51°14.046 2°55.481 339 9.8 336 9.1
2007-08-30 07:09:37 51°14.06 2°55.471 338.3 9.6 335 9.2
2007-08-30 07:09:42 51°14.072 2°55.462 337.7 9.4 335 9.2
2007-08-30 07:09:46 51°14.082 2°55.455 337.6 9.3 335 9.1
2007-08-30 07:09:51 51°14.093 2°55.446 337.5 9.3 335 9.1
2007-08-30 07:09:57 51°14.107 2°55.435 336.9 9.3 334 9.2
2007-08-30 07:10:02 51°14.119 2°55.426 336.1 9.3 333 9.2
2007-08-30 07:10:07 51°14.13 2°55.416 335 9.5 332 9.2
2007-08-30 07:10:11 51°14.139 2°55.407 333.1 9.5 330 9.2
2007-08-30 07:10:17 51°14.153 2°55.395 332.4 9.6 330 9.1
2007-08-30 07:10:22 51°14.164 2°55.383 331.8 9.7 328 9.1
2007-08-30 07:10:26 51°14.173 2°55.374 330.1 9.8 327 9.2
2007-08-30 07:10:32 51°14.187 2°55.359 328.5 9.8 325 -999
2007-08-30 07:10:37 51°14.198 2°55.345 326.7 9.9 323 9.1
2007-08-30 07:10:42 51°14.208 2°55.331 324.5 9.9 321 -999
2007-08-30 07:10:46 51°14.217 2°55.32 323.6 10 321 9.1
2007-08-30 07:10:52 51°14.229 2°55.303 322.2 10 319 9.1
2007-08-30 07:10:57 51°14.239 2°55.288 321 10 318 9.1
2007-08-30 07:11:02 51°14.25 2°55.273 320.6 10 318 9.1
2007-08-30 07:11:06 51°14.258 2°55.261 319.1 10 316 9
2007-08-30 07:11:12 51°14.269 2°55.242 318.1 10 315 8.8
2007-08-30 07:11:17 51°14.279 2°55.226 317.3 10.1 315 8.9
2007-08-30 07:11:22 51°14.289 2°55.21 316.6 10.1 314 9.1
2007-08-30 07:11:26 51°14.297 2°55.197 316.2 10.2 314 9.2
2007-08-30 07:11:32 51°14.309 2°55.178 316.3 10.2 314 9.3
2007-08-30 07:11:36 51°14.316 2°55.164 316.1 10.3 313 9.3
2007-08-30 07:11:42 51°14.327 2°55.144 314.2 10.3 311 9.2
2007-08-30 07:11:47 51°14.337 2°55.126 312.9 10.4 311 9.1
2007-08-30 07:11:51 51°14.344 2°55.112 312.5 10.5 310 9.3
2007-08-30 07:11:57 51°14.356 2°55.091 312.1 10.6 310 9.2
2007-08-30 07:12:02 51°14.365 2°55.072 312 10.8 310 9.2
2007-08-30 07:12:06 51°14.373 2°55.058 312.6 11 311 9.3
2007-08-30 07:12:12 51°14.386 2°55.036 313.5 11.2 312 9.2
2007-08-30 07:12:17 51°14.397 2°55.017 314.5 11.4 313 9.3
2007-08-30 07:12:22 51°14.408 2°54.999 316 11.6 314 9.2
2007-08-30 07:12:26 51°14.417 2°54.984 317.3 11.7 314 9.3
2007-08-30 07:12:32 51°14.43 2°54.96 318.2 11.9 312 9.2
2007-08-30 07:12:36 51°14.439 2°54.944 317 12 311 9.2
2007-08-30 07:12:42 51°14.453 2°54.921 316.6 12 312 9.1
2007-08-30 07:12:46 51°14.462 2°54.905 319.1 12 315 9.1
2007-08-30 07:12:52 51°14.476 2°54.883 322.5 12 316 8.9
2007-08-30 07:12:57 51°14.489 2°54.866 324.1 12 318 8.5
2007-08-30 07:13:02 51°14.501 2°54.849 326.1 11.9 319 8.4
2007-08-30 07:13:06 51°14.511 2°54.835 327.4 11.9 320 8.4
2007-08-30 07:13:11 51°14.525 2°54.821 331.4 11.9 326 8.4
2007-08-30 07:13:17 51°14.542 2°54.803 333.1 11.9 325 8.1
2007-08-30 07:13:22 51°14.556 2°54.789 335.2 11.9 328 8.1
2007-08-30 07:13:26 51°14.567 2°54.779 336.9 11.9 329 8.1
2007-08-30 07:13:30 51°14.578 2°54.768 337.5 11.9 330 8
2007-08-30 07:13:36 51°14.595 2°54.753 338 11.9 331 8
2007-08-30 07:13:42 51°14.613 2°54.738 338.8 11.9 332 8
2007-08-30 07:13:46 51°14.625 2°54.728 339.1 12 332 8
2007-08-30 07:13:51 51°14.639 2°54.716 339.3 12 332 8
2007-08-30 07:13:56 51°14.654 2°54.703 339.4 12 332 8.1
2007-08-30 07:14:02 51°14.671 2°54.687 338.9 11.9 331 8.1
2007-08-30 07:14:06 51°14.682 2°54.677 337.8 12 329 8.1
2007-08-30 07:14:12 51°14.699 2°54.659 336.5 12 327 8
2007-08-30 07:14:16 51°14.71 2°54.647 335.3 12 326 8.1
2007-08-30 07:14:22 51°14.727 2°54.629 334.5 12.1 325 8.3
2007-08-30 07:14:27 51°14.74 2°54.614 334 12.1 326 8.1
2007-08-30 07:14:32 51°14.754 2°54.599 333.9 12.1 326 8
2007-08-30 07:14:36 51°14.765 2°54.587 334 12.1 326 8
2007-08-30 07:14:42 51°14.782 2°54.57 334.5 12 328 8
2007-08-30 07:14:46 51°14.793 2°54.559 335.7 12 329 8.1
2007-08-30 07:14:51 51°14.808 2°54.546 336.6 12 329 8.1
2007-08-30 07:14:57 51°14.825 2°54.53 337.1 12 331 8.3
2007-08-30 07:15:02 51°14.84 2°54.518 338.2 12 332 8.4
2007-08-30 07:15:06 51°14.852 2°54.508 338.9 12 333 8.1
2007-08-30 07:15:12 51°14.87 2°54.495 340.6 11.9 335 8
2007-08-30 07:15:17 51°14.885 2°54.484 341 12 335 8
2007-08-30 07:15:22 51°14.9 2°54.473 341.6 11.9 336 7.9
2007-08-30 07:15:26 51°14.912 2°54.465 342.2 11.9 336 7.6
2007-08-30 07:15:31 51°14.927 2°54.454 342.5 11.8 336 7.4
2007-08-30 07:15:37 51°14.944 2°54.441 342.5 11.7 335 7.3
2007-08-30 07:15:42 51°14.959 2°54.43 342.3 11.7 335 7.3
2007-08-30 07:15:46 51°14.97 2°54.421 341.6 11.7 334 7.1
2007-08-30 07:15:52 51°14.988 2°54.407 341 11.6 333 7.1
2007-08-30 07:15:56 51°14.999 2°54.397 339.9 11.6 331 7.1
2007-08-30 07:16:02 51°15.016 2°54.38 337.7 11.6 329 7
2007-08-30 07:16:06 51°15.027 2°54.369 336.5 11.6 328 7.1
2007-08-30 07:16:12 51°15.043 2°54.352 335.6 11.7 327 7
2007-08-30 07:16:16 51°15.054 2°54.341 334.8 11.7 325 7
2007-08-30 07:16:22 51°15.069 2°54.322 333.4 11.7 323 7
2007-08-30 07:16:27 51°15.082 2°54.306 333 11.8 323 7.1
2007-08-30 07:16:32 51°15.095 2°54.291 332.6 11.8 322 7.1
2007-08-30 07:16:36 51°15.106 2°54.279 332.9 11.8 325 7.2
2007-08-30 07:16:42 51°15.122 2°54.261 334.5 11.8 326 7.2
2007-08-30 07:16:47 51°15.136 2°54.247 335.7 11.9 327 7.4
2007-08-30 07:16:52 51°15.15 2°54.233 337 11.9 328 5.4
2007-08-30 07:16:56 51°15.161 2°54.222 337.8 11.9 328 7.3
2007-08-30 07:17:02 51°15.178 2°54.206 338.6 11.9 329 5.3
2007-08-30 07:17:06 51°15.189 2°54.195 338.9 11.8 329 7.4
2007-08-30 07:17:12 51°15.207 2°54.18 339.4 11.9 330 7.5
2007-08-30 07:17:17 51°15.221 2°54.167 339.6 11.9 330 7.5
2007-08-30 07:17:22 51°15.235 2°54.153 339.8 11.9 330 7.5
2007-08-30 07:17:26 51°15.247 2°54.143 339.6 12 330 7.6
2007-08-30 07:17:32 51°15.264 2°54.127 339.4 12 331 7.7
2007-08-30 07:17:37 51°15.278 2°54.114 339.6 12 330 7.8
2007-08-30 07:17:42 51°15.293 2°54.101 339.3 11.9 330 7.7
2007-08-30 07:17:46 51°15.304 2°54.09 339.2 12 330 7.8
2007-08-30 07:17:52 51°15.322 2°54.074 339.3 12 330 7.9
2007-08-30 07:17:57 51°15.336 2°54.061 339.4 12 330 8.1
2007-08-30 07:18:02 51°15.351 2°54.047 339.5 12 330 8.1
2007-08-30 07:18:06 51°15.362 2°54.037 339.6 12 330 8.1
2007-08-30 07:18:11 51°15.377 2°54.024 339.9 12.1 330 8.2
2007-08-30 07:18:17 51°15.394 2°54.008 340.2 12 330 8.2
2007-08-30 07:18:22 51°15.409 2°53.994 340.2 12 330 8.3
2007-08-30 07:18:27 51°15.423 2°53.981 340.2 12 330 8.3
2007-08-30 07:18:31 51°15.435 2°53.97 340.2 12 330 8.4
2007-08-30 07:18:37 51°15.452 2°53.955 340 12 330 8.4
2007-08-30 07:18:42 51°15.467 2°53.941 340 12 330 8.5
2007-08-30 07:18:46 51°15.478 2°53.93 339.9 12 330 8.5
2007-08-30 07:18:52 51°15.495 2°53.915 340.3 12 331 8.6
2007-08-30 07:18:56 51°15.507 2°53.904 340.7 12 331 8.6
2007-08-30 07:19:02 51°15.525 2°53.889 341.1 12 331 8.6
2007-08-30 07:19:07 51°15.539 2°53.876 341.5 12.1 331 8.8
2007-08-30 07:19:12 51°15.554 2°53.864 341.7 12 332 8.7
2007-08-30 07:19:17 51°15.569 2°53.851 341.7 12 331 8.9
2007-08-30 07:19:22 51°15.584 2°53.838 341.7 12.1 332 8.8
2007-08-30 07:19:26 51°15.595 2°53.829 341.7 12.1 332 8.9
2007-08-30 07:19:32 51°15.613 2°53.814 341.8 12.1 332 9.1
2007-08-30 07:19:37 51°15.628 2°53.801 342 12 333 9
2007-08-30 07:19:42 51°15.643 2°53.789 342.1 12 332 8.9
2007-08-30 07:19:46 51°15.654 2°53.779 341.8 12.1 332 9
2007-08-30 07:19:52 51°15.672 2°53.764 341.8 12.1 332 9.1
2007-08-30 07:19:57 51°15.687 2°53.751 341.8 12.1 332 9.2
2007-08-30 07:20:02 51°15.702 2°53.739 341.8 12.1 332 9.2
2007-08-30 07:20:06 51°15.714 2°53.729 341.7 12.1 332 9.2
2007-08-30 07:20:10 51°15.725 2°53.718 341.5 12.1 331 9.2
2007-08-30 07:20:17 51°15.746 2°53.7 341.1 12.1 331 9.4
2007-08-30 07:20:22 51°15.76 2°53.687 340.9 12.1 331 9.3
2007-08-30 07:20:26 51°15.772 2°53.677 341.1 12.1 332 9.3
2007-08-30 07:20:31 51°15.787 2°53.665 341.7 12.1 332 9.3
2007-08-30 07:20:37 51°15.805 2°53.65 341.8 12.1 332 9.4
2007-08-30 07:20:42 51°15.82 2°53.637 341.8 12.1 332 9.5
2007-08-30 07:20:46 51°15.832 2°53.628 342.2 12.1 333 9.5
2007-08-30 07:20:52 51°15.85 2°53.613 342.5 12.1 333 9.4
2007-08-30 07:20:56 51°15.862 2°53.603 342.5 12.1 333 9.5
2007-08-30 07:21:02 51°15.88 2°53.589 342.4 12.1 333 9.5
2007-08-30 07:21:07 51°15.894 2°53.576 342.2 12.2 332 9.7
2007-08-30 07:21:12 51°15.909 2°53.563 341.8 12.1 332 9.7
2007-08-30 07:21:16 51°15.921 2°53.553 341.7 12.2 332 9.8
2007-08-30 07:21:22 51°15.939 2°53.538 341.3 12.2 331 9.8
2007-08-30 07:21:27 51°15.954 2°53.525 341.1 12.1 331 9.8
2007-08-30 07:21:31 51°15.966 2°53.515 341.1 12.2 331 9.9
2007-08-30 07:21:37 51°15.983 2°53.499 341.2 12.1 332 9.9
2007-08-30 07:21:42 51°15.998 2°53.487 341.4 12.1 332 9.9
2007-08-30 07:21:47 51°16.013 2°53.474 342 12.1 333 9.9
2007-08-30 07:21:52 51°16.028 2°53.462 342.3 12.1 333 10
2007-08-30 07:21:57 51°16.043 2°53.45 342.5 12.1 333 10
2007-08-30 07:22:02 51°16.058 2°53.438 343.2 12.1 334 10
2007-08-30 07:22:06 51°16.07 2°53.429 343.5 12.1 334 10
2007-08-30 07:22:12 51°16.088 2°53.415 343.9 12.1 334 10.1
2007-08-30 07:22:17 51°16.103 2°53.403 344 12.1 334 10.1
2007-08-30 07:22:22 51°16.118 2°53.391 343.9 12.1 333 10.1
2007-08-30 07:22:26 51°16.13 2°53.381 343.5 12.1 333 10.1
2007-08-30 07:22:31 51°16.145 2°53.369 343.2 12.1 332 10.2
2007-08-30 07:22:37 51°16.162 2°53.353 342.5 12.1 332 10.1
2007-08-30 07:22:42 51°16.177 2°53.341 342 12.1 331 10.1
2007-08-30 07:22:46 51°16.189 2°53.33 341.5 12.1 331 10.2
2007-08-30 07:22:52 51°16.206 2°53.315 341.1 12.1 331 10.3
2007-08-30 07:22:56 51°16.218 2°53.305 341.1 12.1 331 10.2
2007-08-30 07:23:02 51°16.236 2°53.29 341.1 12.1 331 10.3
2007-08-30 07:23:07 51°16.25 2°53.277 341.1 12.1 331 10.9
2007-08-30 07:23:12 51°16.265 2°53.264 341 12.1 331 10.4
2007-08-30 07:23:16 51°16.277 2°53.253 341 12.1 331 10.2
2007-08-30 07:23:22 51°16.295 2°53.238 341 12.1 331 10.2
2007-08-30 07:23:27 51°16.309 2°53.226 341.1 12.1 332 10.3
2007-08-30 07:23:31 51°16.321 2°53.216 341.2 12.1 332 10.3
2007-08-30 07:23:37 51°16.339 2°53.201 341.3 12.1 332 10.3
2007-08-30 07:23:42 51°16.354 2°53.188 341.3 12.1 332 10.3
2007-08-30 07:23:46 51°16.366 2°53.178 341.7 12.1 332 10.4
2007-08-30 07:23:52 51°16.384 2°53.163 341.8 12.1 332 10.3
2007-08-30 07:23:57 51°16.398 2°53.151 341.8 12.1 333 10.3
2007-08-30 07:24:02 51°16.413 2°53.138 341.9 12.1 332 10.4
2007-08-30 07:24:06 51°16.425 2°53.128 341.8 12.1 332 10.4
2007-08-30 07:24:12 51°16.443 2°53.113 341.3 12.1 332 10.4
2007-08-30 07:24:17 51°16.458 2°53.101 341.2 12.1 332 10.4
2007-08-30 07:24:22 51°16.473 2°53.088 341.1 12.1 331 10.4
2007-08-30 07:24:26 51°16.484 2°53.078 341 12.1 332 10.3
2007-08-30 07:24:32 51°16.502 2°53.063 340.9 12.1 331 10.2
2007-08-30 07:24:37 51°16.517 2°53.05 340.4 12.1 331 10.1
2007-08-30 07:24:42 51°16.531 2°53.036 340.4 12.1 331 10.2
2007-08-30 07:24:46 51°16.543 2°53.026 340.4 12 331 10
2007-08-30 07:24:52 51°16.561 2°53.011 341.1 12.1 333 10.1
2007-08-30 07:24:57 51°16.575 2°52.999 341.4 12 333 10.1
2007-08-30 07:25:02 51°16.59 2°52.988 342.1 12 334 10.1
2007-08-30 07:25:07 51°16.605 2°52.977 342.6 12 334 10
2007-08-30 07:25:11 51°16.617 2°52.968 342.9 12 335 9.8
2007-08-30 07:25:17 51°16.636 2°52.954 343.1 12 335 9.8
2007-08-30 07:25:22 51°16.651 2°52.942 342.5 12 334 9.8
2007-08-30 07:25:26 51°16.662 2°52.933 341.8 12 333 9.8
2007-08-30 07:25:32 51°16.68 2°52.918 341.2 12 333 9.6
2007-08-30 07:25:36 51°16.692 2°52.909 340.9 12 334 9.6
2007-08-30 07:25:42 51°16.71 2°52.895 340.9 12 334 9.6
2007-08-30 07:25:47 51°16.726 2°52.885 342.1 12 337 9.4
2007-08-30 07:25:52 51°16.741 2°52.875 343.4 11.9 337 9.2
2007-08-30 07:25:56 51°16.753 2°52.867 344.9 11.9 339 9
2007-08-30 07:26:02 51°16.772 2°52.856 345.8 11.9 339 8.6
2007-08-30 07:26:06 51°16.784 2°52.849 346.5 11.8 340 8.4
2007-08-30 07:26:11 51°16.799 2°52.84 347.2 11.7 340 8
2007-08-30 07:26:17 51°16.817 2°52.83 347.6 11.6 341 7.9
2007-08-30 07:26:22 51°16.833 2°52.822 348.2 11.6 341 8
2007-08-30 07:26:26 51°16.845 2°52.815 348.3 11.6 341 7.9
2007-08-30 07:26:32 51°16.863 2°52.805 348.1 11.6 340 7.9
2007-08-30 07:26:37 51°16.878 2°52.797 347.9 11.6 340 7.7
2007-08-30 07:26:42 51°16.893 2°52.787 347.5 11.6 339 7.5
2007-08-30 07:26:46 51°16.905 2°52.78 346.7 11.6 338 7.8
2007-08-30 07:26:52 51°16.923 2°52.767 345.4 11.6 337 7.9
2007-08-30 07:26:57 51°16.938 2°52.757 344.4 11.7 337 7.9
2007-08-30 07:27:02 51°16.952 2°52.746 343.9 11.7 335 8.1
2007-08-30 07:27:06 51°16.964 2°52.737 343 11.8 335 8.1
2007-08-30 07:27:11 51°16.979 2°52.727 343 11.8 335 8.2
2007-08-30 07:27:16 51°16.994 2°52.716 343 11.8 336 8.3
2007-08-30 07:27:22 51°17.012 2°52.703 343 11.8 335 8.4
2007-08-30 07:27:26 51°17.024 2°52.695 344 11.8 338 8.5
2007-08-30 07:27:32 51°17.042 2°52.685 346.3 11.8 340 8.7
2007-08-30 07:27:36 51°17.055 2°52.678 348.1 11.8 342 8.5
2007-08-30 07:27:42 51°17.073 2°52.67 350.1 11.7 344 8.4
2007-08-30 07:27:47 51°17.089 2°52.664 351.6 11.7 345 8.3
2007-08-30 07:27:52 51°17.104 2°52.657 353 11.6 346 8
2007-08-30 07:27:56 51°17.117 2°52.652 354 11.5 346 8
2007-08-30 07:28:02 51°17.136 2°52.646 354.4 11.5 347 8.1
2007-08-30 07:28:07 51°17.151 2°52.64 354.9 11.5 348 8
2007-08-30 07:28:11 51°17.164 2°52.636 355.6 11.5 348 8.1
2007-08-30 07:28:17 51°17.182 2°52.63 355.8 11.5 348 8.3
2007-08-30 07:28:22 51°17.198 2°52.624 355.8 11.3 348 8.1
2007-08-30 07:28:27 51°17.212 2°52.619 355.6 10.6 347 8.3
2007-08-30 07:28:32 51°17.225 2°52.613 354.8 10 346 8.3
2007-08-30 07:28:37 51°17.237 2°52.607 353.7 9.5 344 8.4
2007-08-30 07:28:42 51°17.249 2°52.601 352.3 8.9 342 8.4
2007-08-30 07:28:46 51°17.257 2°52.596 350.9 8.3 341 8.6
2007-08-30 07:28:52 51°17.269 2°52.589 349.8 7.8 339 8.6
2007-08-30 07:28:57 51°17.279 2°52.583 348.9 7.4 339 8.8
2007-08-30 07:29:02 51°17.288 2°52.577 348.5 6.9 338 8.7
2007-08-30 07:29:06 51°17.294 2°52.572 348.2 6.4 337 8.7
2007-08-30 07:29:12 51°17.304 2°52.566 348 6.1 337 8.8
2007-08-30 07:29:17 51°17.31 2°52.561 347.6 5.7 336 8.9
2007-08-30 07:29:22 51°17.317 2°52.556 347.2 5.3 335 8.9
2007-08-30 07:29:26 51°17.322 2°52.552 347 5 334 8.8
2007-08-30 07:29:32 51°17.329 2°52.547 346.9 4.8 334 8.8
2007-08-30 07:29:36 51°17.334 2°52.543 346.7 4.5 332 8.9
2007-08-30 07:29:42 51°17.34 2°52.538 346.4 4.3 332 8.9
2007-08-30 07:29:47 51°17.345 2°52.533 346.2 4.1 331 8.8
2007-08-30 07:29:51 51°17.348 2°52.53 346 3.9 331 8.9
2007-08-30 07:29:57 51°17.354 2°52.525 346 3.8 330 9
2007-08-30 07:30:02 51°17.358 2°52.521 345.8 3.6 330 8.9
2007-08-30 07:30:06 51°17.361 2°52.518 345.8 3.4 329 9
2007-08-30 07:30:12 51°17.366 2°52.514 346 3.3 329 8.9
2007-08-30 07:30:17 51°17.37 2°52.51 346.2 3.2 329 8.9
2007-08-30 07:30:22 51°17.374 2°52.506 346.8 3.2 331 9
2007-08-30 07:30:27 51°17.378 2°52.503 348.1 3.3 332 8.9
2007-08-30 07:30:32 51°17.382 2°52.5 349.4 3.3 334 8.9
2007-08-30 07:30:37 51°17.386 2°52.497 351.3 3.3 335 9.1
2007-08-30 07:30:42 51°17.39 2°52.494 352.7 3.3 337 9.1
2007-08-30 07:30:46 51°17.393 2°52.492 354.3 3.2 339 8.9
2007-08-30 07:30:51 51°17.397 2°52.49 356.3 3.2 340 9
2007-08-30 07:30:57 51°17.403 2°52.487 357.3 3.2 343 9.1
2007-08-30 07:31:02 51°17.407 2°52.485 358.7 3.3 344 9.2
2007-08-30 07:31:06 51°17.41 2°52.484 -999 3.2 345 8.9
2007-08-30 07:31:12 51°17.416 2°52.482 1.1 3.2 346 9
2007-08-30 07:31:17 51°17.42 2°52.48 1.7 3.2 349 9
2007-08-30 07:31:22 51°17.424 2°52.479 2.8 3.2 348 9
2007-08-30 07:31:26 51°17.428 2°52.478 3 3.2 350 9
2007-08-30 07:31:30 51°17.431 2°52.477 3.9 3.3 350 9.1
2007-08-30 07:31:37 51°17.438 2°52.476 5.4 3.3 355 9.2
2007-08-30 07:31:42 51°17.442 2°52.475 7.1 3.3 354 9.1
2007-08-30 07:31:46 51°17.446 2°52.475 8.7 3.4 358 9.2
2007-08-30 07:31:51 51°17.451 2°52.475 10.1 3.5 -999 9.2
2007-08-30 07:31:57 51°17.457 2°52.475 12.2 3.5 3 9.2
2007-08-30 07:32:02 51°17.461 2°52.476 13.7 3.5 4 9
2007-08-30 07:32:06 51°17.465 2°52.476 15.6 3.5 8 9.2
2007-08-30 07:32:12 51°17.471 2°52.478 17.6 3.5 12 9
2007-08-30 07:32:16 51°17.475 2°52.48 20.2 3.5 13 9
2007-08-30 07:32:22 51°17.48 2°52.482 22.8 3.5 16 9.1
2007-08-30 07:32:27 51°17.485 2°52.485 24.6 3.6 18 9.1
2007-08-30 07:32:32 51°17.49 2°52.488 26.6 3.6 22 9.1
2007-08-30 07:32:36 51°17.493 2°52.49 28.4 3.6 23 9.2
2007-08-30 07:32:42 51°17.499 2°52.495 29.6 3.6 25 9
2007-08-30 07:32:47 51°17.504 2°52.498 30.7 3.7 26 9.1
2007-08-30 07:32:51 51°17.507 2°52.501 31.2 3.7 27 9
2007-08-30 07:32:57 51°17.512 2°52.506 32.2 3.7 27 9
2007-08-30 07:33:02 51°17.517 2°52.51 33 3.8 30 9.1
2007-08-30 07:33:06 51°17.52 2°52.513 33 3.7 28 9.1
2007-08-30 07:33:12 51°17.526 2°52.518 33.2 3.7 30 9.2
2007-08-30 07:33:17 51°17.53 2°52.523 33.9 3.7 32 9.2
2007-08-30 07:33:22 51°17.535 2°52.527 36.1 3.7 36 9.2
2007-08-30 07:33:26 51°17.538 2°52.532 39 3.8 38 9
2007-08-30 07:33:31 51°17.542 2°52.537 41.8 3.7 42 8.9
2007-08-30 07:33:37 51°17.546 2°52.545 44.7 3.8 47 9
2007-08-30 07:33:42 51°17.549 2°52.551 47.2 3.8 49 9
2007-08-30 07:33:46 51°17.552 2°52.556 49.4 3.8 51 9.1
2007-08-30 07:33:51 51°17.555 2°52.563 52.2 3.8 57 9.2
2007-08-30 07:33:57 51°17.558 2°52.572 55.4 3.9 61 9.1
2007-08-30 07:34:02 51°17.56 2°52.58 59.3 3.9 64 9.2
2007-08-30 07:34:06 51°17.562 2°52.586 62 3.9 67 9.2
2007-08-30 07:34:12 51°17.564 2°52.597 64.1 4.1 71 9.3
2007-08-30 07:34:16 51°17.566 2°52.605 66.6 4.7 72 9.2
2007-08-30 07:34:22 51°17.569 2°52.619 69.3 5.4 74 9
2007-08-30 07:34:27 51°17.571 2°52.632 71.1 6 76 9
2007-08-30 07:34:32 51°17.573 2°52.646 72.8 6.6 77 9
2007-08-30 07:34:37 51°17.575 2°52.662 74 7.1 77 8.9
2007-08-30 07:34:42 51°17.577 2°52.679 75 7.8 77 8.7
2007-08-30 07:34:47 51°17.58 2°52.698 75.7 8.5 78 8.9
2007-08-30 07:34:51 51°17.583 2°52.713 76.1 9 76 9
2007-08-30 07:34:57 51°17.586 2°52.738 76.2 9.5 78 8.7
2007-08-30 07:35:02 51°17.589 2°52.759 76.3 9.8 76 8.8
2007-08-30 07:35:06 51°17.592 2°52.776 75 10.1 73 8.9
2007-08-30 07:35:12 51°17.598 2°52.803 73.7 10.3 73 8.6
2007-08-30 07:35:17 51°17.602 2°52.825 73.3 10.5 72 8.8
2007-08-30 07:35:22 51°17.607 2°52.847 72.1 10.6 69 8.7
2007-08-30 07:35:26 51°17.611 2°52.865 70.9 10.7 70 8.5
2007-08-30 07:35:32 51°17.618 2°52.891 69.7 10.8 67 8.7
2007-08-30 07:35:37 51°17.624 2°52.914 68.5 10.9 68 8.7
2007-08-30 07:35:42 51°17.63 2°52.936 67.4 10.9 66 8.6
2007-08-30 07:35:46 51°17.635 2°52.954 67.2 11 67 8.6
2007-08-30 07:35:51 51°17.642 2°52.976 67.2 11.1 65 8.6
2007-08-30 07:35:57 51°17.649 2°53.003 67.1 11.1 66 8.6
2007-08-30 07:36:02 51°17.655 2°53.025 67.5 11.1 67 8.6
2007-08-30 07:36:06 51°17.66 2°53.043 67.5 11.1 67 8.4
2007-08-30 07:36:12 51°17.668 2°53.07 67.5 11.1 66 8.5
2007-08-30 07:36:17 51°17.674 2°53.093 67.4 11.1 66 8.5
2007-08-30 07:36:22 51°17.68 2°53.115 67 11.1 65 8.5
2007-08-30 07:36:27 51°17.687 2°53.137 66.2 11.1 64 8.4
2007-08-30 07:36:31 51°17.692 2°53.155 65.8 11.1 64 8.5
2007-08-30 07:36:37 51°17.701 2°53.181 65.2 11.1 63 8.4
2007-08-30 07:36:42 51°17.708 2°53.203 64.5 11.1 63 8.4
2007-08-30 07:36:47 51°17.715 2°53.225 64.5 11.1 63 8.4
2007-08-30 07:36:51 51°17.721 2°53.242 64.2 11.1 63 8.4
2007-08-30 07:36:57 51°17.729 2°53.269 64 11.2 62 8.4
2007-08-30 07:37:02 51°17.736 2°53.291 64.1 11.2 63 8.2
2007-08-30 07:37:06 51°17.741 2°53.309 65.2 11.2 65 8.3
2007-08-30 07:37:12 51°17.749 2°53.336 66 11.1 66 8.5
2007-08-30 07:37:17 51°17.755 2°53.358 66.9 11.2 66 8.3
2007-08-30 07:37:22 51°17.761 2°53.381 68 11.2 66 8.4
2007-08-30 07:37:27 51°17.767 2°53.404 68.2 11.1 67 8.5
2007-08-30 07:37:32 51°17.774 2°53.427 68.1 11.2 66 8.4
2007-08-30 07:37:37 51°17.781 2°53.449 67.4 11.2 64 8.5
2007-08-30 07:37:42 51°17.787 2°53.471 66.3 11.1 66 8.3
2007-08-30 07:37:46 51°17.793 2°53.489 66.1 11 62 8.4
2007-08-30 07:37:52 51°17.801 2°53.515 64.8 11.1 63 8.4
2007-08-30 07:37:57 51°17.809 2°53.535 63.4 11.1 59 8.5
2007-08-30 07:38:02 51°17.817 2°53.557 61.6 11.1 60 8.3
2007-08-30 07:38:06 51°17.823 2°53.573 61 11 59 8.2
2007-08-30 07:38:11 51°17.832 2°53.594 60.1 11.1 57 8.4
2007-08-30 07:38:17 51°17.841 2°53.618 59.8 11 57 8.3
2007-08-30 07:38:22 51°17.849 2°53.639 59.9 11 58 8.4
2007-08-30 07:38:26 51°17.856 2°53.656 59.7 11.1 57 8.3
2007-08-30 07:38:31 51°17.864 2°53.677 59.9 11.1 58 8.4
2007-08-30 07:38:37 51°17.874 2°53.702 60.6 11.1 60 8.2
2007-08-30 07:38:42 51°17.881 2°53.723 61 11.1 59 8.3
2007-08-30 07:38:46 51°17.887 2°53.741 62.2 11.1 62 8.3
2007-08-30 07:38:52 51°17.896 2°53.766 63 11.1 61 8.4
2007-08-30 07:38:56 51°17.902 2°53.784 63.1 11.1 62 8.3
2007-08-30 07:39:02 51°17.91 2°53.81 63.8 11.2 63 8.1
2007-08-30 07:39:07 51°17.918 2°53.832 64.5 11.1 62 8.3
2007-08-30 07:39:12 51°17.925 2°53.853 63.8 11.1 62 8.3
2007-08-30 07:39:17 51°17.933 2°53.875 63.2 11.1 61 8.4
2007-08-30 07:39:22 51°17.941 2°53.896 62.4 11.1 59 8.3
2007-08-30 07:39:27 51°17.949 2°53.917 61.9 11.2 59 8.2
2007-08-30 07:39:31 51°17.955 2°53.933 60.8 11.1 57 8.4
2007-08-30 07:39:37 51°17.965 2°53.958 60.1 11.1 57 8.4
2007-08-30 07:39:42 51°17.974 2°53.978 59.1 11.1 55 8.2
2007-08-30 07:39:46 51°17.981 2°53.995 58.4 11.1 56 8.1
2007-08-30 07:39:52 51°17.991 2°54.019 58.3 11.1 56 8.5
2007-08-30 07:39:57 51°18 2°54.04 58.4 11.1 57 8.3
2007-08-30 07:40:02 51°18.008 2°54.061 59.4 11.1 58 8.4
2007-08-30 07:40:06 51°18.014 2°54.077 60.7 11.1 59 8.3
2007-08-30 07:40:12 51°18.023 2°54.103 61.3 11.1 60 8.2
2007-08-30 07:40:17 51°18.031 2°54.124 61.8 11.1 60 8.3
2007-08-30 07:40:22 51°18.039 2°54.145 62 11 60 8.2
2007-08-30 07:40:26 51°18.045 2°54.163 62.7 11.1 61 8.4
2007-08-30 07:40:32 51°18.054 2°54.188 62.3 11.1 59 8.2
2007-08-30 07:40:37 51°18.062 2°54.209 61.3 11.1 59 8.3
2007-08-30 07:40:42 51°18.07 2°54.229 61.2 11 58 8.3
2007-08-30 07:40:46 51°18.077 2°54.246 60.3 11 57 8.3
2007-08-30 07:40:52 51°18.087 2°54.271 59.8 11 58 8.3
2007-08-30 07:40:56 51°18.093 2°54.288 60.4 11.1 58 8.4
2007-08-30 07:41:02 51°18.103 2°54.312 59.9 11.1 56 8.3
2007-08-30 07:41:07 51°18.111 2°54.333 59.5 11.1 58 8.2
2007-08-30 07:41:12 51°18.12 2°54.353 59.8 11 56 8.3
2007-08-30 07:41:16 51°18.126 2°54.37 59.8 11 57 8.2
2007-08-30 07:41:22 51°18.137 2°54.394 59.2 11 55 8.3
2007-08-30 07:41:27 51°18.145 2°54.414 58.4 11.1 56 8.4
2007-08-30 07:41:32 51°18.154 2°54.435 58.4 11.1 55 8.4
2007-08-30 07:41:36 51°18.161 2°54.451 57.7 11 56 8.2
2007-08-30 07:41:42 51°18.171 2°54.475 58 11 55 8.3
2007-08-30 07:41:47 51°18.18 2°54.495 57.8 11 56 8.4
2007-08-30 07:41:51 51°18.187 2°54.511 57.7 11 55 8.3
2007-08-30 07:41:57 51°18.197 2°54.535 57.7 11.1 56 8.3
2007-08-30 07:42:02 51°18.206 2°54.555 58 11.1 54 8.4
2007-08-30 07:42:07 51°18.215 2°54.575 57.3 11 55 8.4
2007-08-30 07:42:12 51°18.224 2°54.595 57.1 11 55 8.4
2007-08-30 07:42:17 51°18.233 2°54.615 57.5 11 55 8.4
2007-08-30 07:42:22 51°18.241 2°54.636 57.7 11 57 8.4
2007-08-30 07:42:26 51°18.248 2°54.652 58.9 11 56 8.4
2007-08-30 07:42:32 51°18.257 2°54.677 59.5 11 59 8.4
2007-08-30 07:42:37 51°18.265 2°54.698 60.4 11 59 8.4
2007-08-30 07:42:42 51°18.273 2°54.719 60.9 11 60 8.4
2007-08-30 07:42:46 51°18.279 2°54.735 61 11 59 8.4
2007-08-30 07:42:52 51°18.288 2°54.761 61.6 11 61 8.3
2007-08-30 07:42:57 51°18.296 2°54.782 61.9 11 59 8.4
2007-08-30 07:43:02 51°18.304 2°54.803 61.8 11 60 8.4
2007-08-30 07:43:06 51°18.31 2°54.82 61.6 11 59 8.4
2007-08-30 07:43:12 51°18.32 2°54.845 61.2 11 58 8.4
2007-08-30 07:43:16 51°18.326 2°54.861 60.9 11.1 58 8.4
2007-08-30 07:43:22 51°18.336 2°54.886 60 11.1 57 8.5
2007-08-30 07:43:27 51°18.345 2°54.906 59 11 56 8.4
2007-08-30 07:43:31 51°18.352 2°54.922 58.4 11.1 55 8.5
2007-08-30 07:43:37 51°18.362 2°54.947 58.2 11.1 56 8.5
2007-08-30 07:43:42 51°18.371 2°54.967 58.5 11.1 55 8.4
2007-08-30 07:43:46 51°18.378 2°54.983 58.1 11.1 56 8.4
2007-08-30 07:43:52 51°18.388 2°55.008 58.6 11.1 57 8.5
2007-08-30 07:43:57 51°18.396 2°55.028 59.5 11 57 8.5
2007-08-30 07:44:02 51°18.404 2°55.049 60.2 11 58 8.5
2007-08-30 07:44:07 51°18.412 2°55.07 60.8 11.1 59 8.6
2007-08-30 07:44:12 51°18.42 2°55.092 61.4 11.1 60 8.7
2007-08-30 07:44:17 51°18.428 2°55.112 61.3 11 58 8.5
2007-08-30 07:44:22 51°18.435 2°55.133 61.1 11 60 8.6
2007-08-30 07:44:27 51°18.443 2°55.154 61.5 11 58 8.6
2007-08-30 07:44:32 51°18.451 2°55.175 60.5 11 58 8.5
2007-08-30 07:44:37 51°18.459 2°55.195 60.5 10.9 58 8.6
2007-08-30 07:44:42 51°18.467 2°55.216 60.4 11 59 8.5
2007-08-30 07:44:46 51°18.474 2°55.232 60.2 11 58 8.5
2007-08-30 07:44:52 51°18.483 2°55.257 60.6 10.9 58 8.5
2007-08-30 07:44:57 51°18.491 2°55.277 60.2 10.9 57 8.5
2007-08-30 07:45:02 51°18.5 2°55.297 59.1 10.9 56 8.5
2007-08-30 07:45:06 51°18.506 2°55.313 59.2 10.9 57 8.6
2007-08-30 07:45:10 51°18.513 2°55.329 58.6 10.9 55 8.5
2007-08-30 07:45:17 51°18.525 2°55.356 57.7 10.9 55 8.5
2007-08-30 07:45:22 51°18.534 2°55.376 58.4 10.9 56 8.6
2007-08-30 07:45:26 51°18.541 2°55.392 57.9 10.8 54 8.5
2007-08-30 07:45:31 51°18.549 2°55.412 58.1 10.8 56 8.7
2007-08-30 07:45:37 51°18.559 2°55.436 58 10.9 55 8.7
2007-08-30 07:45:42 51°18.568 2°55.455 57.4 10.9 55 8.8
2007-08-30 07:45:46 51°18.575 2°55.471 57.9 10.9 56 8.8
2007-08-30 07:45:52 51°18.585 2°55.495 58.6 10.9 57 8.8
2007-08-30 07:45:56 51°18.591 2°55.512 59.5 10.8 59 8.5
2007-08-30 07:46:02 51°18.6 2°55.536 60.2 10.8 58 8.6
2007-08-30 07:46:07 51°18.608 2°55.557 60.3 10.9 59 8.5
2007-08-30 07:46:12 51°18.616 2°55.577 60.3 10.8 57 8.5
2007-08-30 07:46:16 51°18.623 2°55.593 60.4 10.8 58 8.6
2007-08-30 07:46:22 51°18.632 2°55.618 60.7 10.8 58 8.6
2007-08-30 07:46:27 51°18.641 2°55.638 60 10.8 56 8.7
2007-08-30 07:46:32 51°18.649 2°55.658 58.8 10.9 57 8.6
2007-08-30 07:46:37 51°18.658 2°55.677 58.7 10.8 53 8.8
2007-08-30 07:46:42 51°18.666 2°55.697 57.9 10.8 56 8.8
2007-08-30 07:46:47 51°18.675 2°55.717 58.2 10.8 56 8.9
2007-08-30 07:46:52 51°18.683 2°55.737 58.6 10.9 56 8.8
2007-08-30 07:46:57 51°18.691 2°55.757 59.2 10.8 57 8.8
2007-08-30 07:47:02 51°18.699 2°55.778 59.5 10.9 57 8.8
2007-08-30 07:47:06 51°18.706 2°55.794 60 10.9 57 8.9
2007-08-30 07:47:11 51°18.714 2°55.814 59.5 10.8 57 8.8
2007-08-30 07:47:17 51°18.723 2°55.838 59.9 10.8 58 8.9
2007-08-30 07:47:22 51°18.732 2°55.858 59.6 10.9 57 8.7
2007-08-30 07:47:26 51°18.738 2°55.874 59 10.8 56 8.7
2007-08-30 07:47:31 51°18.746 2°55.894 59 10.7 58 8.6
2007-08-30 07:47:37 51°18.757 2°55.917 58.7 10.7 55 8.5
2007-08-30 07:47:42 51°18.765 2°55.937 58.8 10.6 56 8.6
2007-08-30 07:47:46 51°18.771 2°55.953 58.7 10.7 57 8.8
2007-08-30 07:47:52 51°18.781 2°55.977 59 10.8 55 8.9
2007-08-30 07:47:56 51°18.788 2°55.993 59.3 10.8 59 8.9
2007-08-30 07:48:02 51°18.797 2°56.017 59.9 10.7 56 8.9
2007-08-30 07:48:07 51°18.805 2°56.037 59.5 10.7 57 8.8
2007-08-30 07:48:12 51°18.814 2°56.056 59.3 10.7 56 8.7
2007-08-30 07:48:16 51°18.82 2°56.072 59 10.7 57 8.8
2007-08-30 07:48:22 51°18.83 2°56.096 58.9 10.7 56 8.7
2007-08-30 07:48:27 51°18.838 2°56.115 58.7 10.6 56 8.8
2007-08-30 07:48:32 51°18.846 2°56.135 59 10.6 57 8.9
2007-08-30 07:48:37 51°18.855 2°56.155 58.9 10.7 56 8.6
2007-08-30 07:48:42 51°18.863 2°56.174 58.6 10.7 56 8.6
2007-08-30 07:48:47 51°18.871 2°56.194 58.2 10.7 57 8.5
2007-08-30 07:48:52 51°18.879 2°56.213 58.8 10.6 56 8.6
2007-08-30 07:48:57 51°18.887 2°56.233 58.7 10.6 57 8.5
2007-08-30 07:49:02 51°18.896 2°56.252 58.7 10.6 55 8.5
2007-08-30 07:49:06 51°18.902 2°56.268 58.7 10.7 56 8.5
2007-08-30 07:49:12 51°18.912 2°56.291 58.2 10.6 55 8.5
2007-08-30 07:49:17 51°18.92 2°56.31 57.8 10.6 56 8.6
2007-08-30 07:49:22 51°18.929 2°56.33 58.4 10.6 55 8.5
2007-08-30 07:49:26 51°18.935 2°56.345 58.5 10.6 56 8.4
2007-08-30 07:49:32 51°18.945 2°56.369 58.9 10.6 57 8.4
2007-08-30 07:49:37 51°18.953 2°56.388 59.4 10.6 57 8.5
2007-08-30 07:49:42 51°18.961 2°56.408 59.5 10.6 57 8.5
2007-08-30 07:49:46 51°18.967 2°56.424 59.9 10.6 58 8.5
2007-08-30 07:49:51 51°18.975 2°56.443 59.3 10.5 56 8.4
2007-08-30 07:49:57 51°18.985 2°56.467 59.1 10.5 57 8.4
2007-08-30 07:50:02 51°18.993 2°56.486 58.7 10.5 54 8.3
2007-08-30 07:50:06 51°19 2°56.501 58 10.5 56 8.5
2007-08-30 07:50:12 51°19.01 2°56.524 58.1 10.5 54 8.4
2007-08-30 07:50:16 51°19.016 2°56.54 58 10.5 56 8.4
2007-08-30 07:50:22 51°19.026 2°56.562 58.8 10.5 56 8.4
2007-08-30 07:50:27 51°19.034 2°56.582 59.4 10.5 57 8.5
2007-08-30 07:50:32 51°19.042 2°56.602 59.8 10.6 58 8.6
2007-08-30 07:50:37 51°19.049 2°56.622 60.1 10.5 57 8.5
2007-08-30 07:50:42 51°19.057 2°56.641 60.3 10.5 58 8.5
2007-08-30 07:50:47 51°19.065 2°56.661 60.9 10.5 58 8.5
2007-08-30 07:50:52 51°19.072 2°56.681 60.8 10.5 58 8.5
2007-08-30 07:50:57 51°19.08 2°56.7 60.5 10.5 58 8.4
2007-08-30 07:51:02 51°19.088 2°56.72 59.7 10.4 57 8.4
2007-08-30 07:51:06 51°19.094 2°56.736 60.2 10.5 58 8.4
2007-08-30 07:51:12 51°19.104 2°56.759 60 10.5 56 8.4
2007-08-30 07:51:17 51°19.111 2°56.778 58.9 10.4 57 8.4
2007-08-30 07:51:22 51°19.119 2°56.797 59.6 10.4 58 8.4
2007-08-30 07:51:26 51°19.126 2°56.813 59.7 10.5 56 8.4
2007-08-30 07:51:31 51°19.134 2°56.832 59.6 10.4 57 8.5
2007-08-30 07:51:37 51°19.143 2°56.855 59.3 10.4 56 8.5
2007-08-30 07:51:42 51°19.151 2°56.874 59.1 10.4 56 8.5
2007-08-30 07:51:46 51°19.158 2°56.889 58.7 10.4 56 8.5
2007-08-30 07:51:52 51°19.167 2°56.912 58.2 10.4 56 8.5
2007-08-30 07:51:57 51°19.176 2°56.931 58.3 10.4 55 8.4
2007-08-30 07:52:02 51°19.184 2°56.951 58.2 10.4 56 8.4
2007-08-30 07:52:07 51°19.192 2°56.97 58.1 10.4 56 8.4
2007-08-30 07:52:12 51°19.198 2°56.99 60.3 10.4 62 8.4
2007-08-30 07:52:17 51°19.204 2°57.011 63.6 10.4 65 8.4
2007-08-30 07:52:22 51°19.209 2°57.033 68.2 10.4 69 8.5
2007-08-30 07:52:27 51°19.213 2°57.055 69.8 10.5 71 8.4
2007-08-30 07:52:32 51°19.218 2°57.077 71.3 10.4 73 8.4
2007-08-30 07:52:36 51°19.221 2°57.095 73.4 10.5 74 8.4
2007-08-30 07:52:42 51°19.226 2°57.122 73.8 10.5 74 8.6
2007-08-30 07:52:47 51°19.229 2°57.144 73.9 10.4 75 8.5
2007-08-30 07:52:52 51°19.234 2°57.167 74.4 10.5 73 8.4
2007-08-30 07:52:57 51°19.238 2°57.189 73.3 10.5 73 8.4
2007-08-30 07:53:02 51°19.242 2°57.211 73.8 10.5 74 8.4
2007-08-30 07:53:06 51°19.246 2°57.229 73.4 10.5 71 8.4
2007-08-30 07:53:11 51°19.25 2°57.251 72.8 10.4 73 8.4
2007-08-30 07:53:17 51°19.256 2°57.277 72.2 10.4 70 8.3
2007-08-30 07:53:22 51°19.261 2°57.298 70.5 10.4 68 8.4
2007-08-30 07:53:26 51°19.266 2°57.315 68.8 10.4 67 8.4
2007-08-30 07:53:32 51°19.273 2°57.34 67.6 10.3 65 8.3
2007-08-30 07:53:37 51°19.279 2°57.361 67.1 10.4 66 8.3
2007-08-30 07:53:42 51°19.286 2°57.381 65.9 10.3 62 8.3
2007-08-30 07:53:46 51°19.29 2°57.397 65 10.2 66 8.3
2007-08-30 07:53:52 51°19.298 2°57.422 65.7 10.3 64 8.4
2007-08-30 07:53:57 51°19.304 2°57.443 65.8 10.4 66 8.3
2007-08-30 07:54:02 51°19.31 2°57.464 66.2 10.3 65 8.3
2007-08-30 07:54:06 51°19.314 2°57.48 66.7 10.3 66 8.4
2007-08-30 07:54:11 51°19.321 2°57.501 66.1 10.3 64 8.2
2007-08-30 07:54:16 51°19.326 2°57.522 66.4 10.3 66 8.3
2007-08-30 07:54:22 51°19.334 2°57.547 66.7 10.3 65 8.2
2007-08-30 07:54:26 51°19.338 2°57.563 66.8 10.3 66 8.2
2007-08-30 07:54:32 51°19.345 2°57.589 67.5 10.3 67 8.4
2007-08-30 07:54:36 51°19.349 2°57.606 67.9 10.4 67 8.3
2007-08-30 07:54:42 51°19.356 2°57.631 68.3 10.4 67 8.4
2007-08-30 07:54:47 51°19.362 2°57.653 68.5 10.4 68 8.4
2007-08-30 07:54:51 51°19.366 2°57.67 68.6 10.4 68 8.3
2007-08-30 07:54:57 51°19.373 2°57.695 68.9 10.4 67 8.2
2007-08-30 07:55:02 51°19.378 2°57.716 68.6 10.4 67 8.5
2007-08-30 07:55:06 51°19.383 2°57.733 68 10.3 66 8.2
2007-08-30 07:55:12 51°19.39 2°57.758 67.5 10.4 67 8.2
2007-08-30 07:55:16 51°19.395 2°57.775 66.9 10.3 65 8.2
2007-08-30 07:55:22 51°19.402 2°57.8 66.4 10.2 65 8.2
2007-08-30 07:55:27 51°19.408 2°57.82 66.3 10.2 64 8.1
2007-08-30 07:55:32 51°19.415 2°57.84 65.7 10.2 63 8.2
2007-08-30 07:55:36 51°19.42 2°57.856 65.1 10.2 63 8.2
2007-08-30 07:55:42 51°19.428 2°57.88 64.2 10.2 62 8.1
2007-08-30 07:55:46 51°19.432 2°57.897 64.7 10.2 65 8.1
2007-08-30 07:55:52 51°19.44 2°57.921 65.3 10.2 63 8.1
2007-08-30 07:55:57 51°19.446 2°57.942 66 10.3 66 8.1
2007-08-30 07:56:02 51°19.452 2°57.962 66.1 10.2 64 8.1
2007-08-30 07:56:07 51°19.457 2°57.983 66.6 10.2 68 8.1
2007-08-30 07:56:11 51°19.461 2°58 68.2 10.3 68 8.1
2007-08-30 07:56:17 51°19.468 2°58.025 68.4 10.2 67 8.1
2007-08-30 07:56:22 51°19.472 2°58.046 69.4 10.2 72 8.1
2007-08-30 07:56:26 51°19.476 2°58.063 71.1 10.2 70 8.1
2007-08-30 07:56:31 51°19.48 2°58.085 70.9 10.3 73 8.1
2007-08-30 07:56:37 51°19.486 2°58.111 72.2 10.2 72 8
2007-08-30 07:56:42 51°19.49 2°58.132 71.8 10.2 70 8
2007-08-30 07:56:46 51°19.494 2°58.149 71.3 10.2 72 8
2007-08-30 07:56:52 51°19.5 2°58.175 71.4 10.2 70 7.9
2007-08-30 07:56:56 51°19.503 2°58.191 70.7 10.1 70 8.1
2007-08-30 07:57:02 51°19.509 2°58.217 70.4 10.1 71 8
2007-08-30 07:57:07 51°19.514 2°58.238 70.7 10.2 68 8.1
2007-08-30 07:57:11 51°19.518 2°58.255 70 10.1 70 8.1
2007-08-30 07:57:17 51°19.524 2°58.28 70.7 10.1 70 8
2007-08-30 07:57:22 51°19.528 2°58.301 70.9 10.1 70 8.1
2007-08-30 07:57:26 51°19.532 2°58.318 70.6 10.1 70 8
2007-08-30 07:57:32 51°19.537 2°58.344 71.1 10.1 71 8
2007-08-30 07:57:36 51°19.541 2°58.361 71.2 10.1 72 8
2007-08-30 07:57:42 51°19.546 2°58.386 72.5 10.2 74 8
2007-08-30 07:57:47 51°19.55 2°58.408 73 10.1 72 8
2007-08-30 07:57:52 51°19.554 2°58.429 72.7 10.1 74 8
2007-08-30 07:57:56 51°19.557 2°58.446 73.1 10.1 73 8
2007-08-30 07:58:02 51°19.562 2°58.472 72.7 10.1 73 7.9
2007-08-30 07:58:06 51°19.566 2°58.489 72.6 10 72 8
2007-08-30 07:58:12 51°19.571 2°58.514 72.4 10 73 8
2007-08-30 07:58:17 51°19.575 2°58.535 71.7 10 70 7.9
2007-08-30 07:58:22 51°19.58 2°58.556 70.7 10 71 7.9
2007-08-30 07:58:27 51°19.585 2°58.576 70.4 9.9 68 7.9
2007-08-30 07:58:31 51°19.589 2°58.593 69.2 9.9 69 8
2007-08-30 07:58:37 51°19.595 2°58.617 69.1 10 68 7.9
2007-08-30 07:58:42 51°19.6 2°58.638 68.8 10 68 7.9
2007-08-30 07:58:46 51°19.604 2°58.655 69.6 10 71 7.9
2007-08-30 07:58:51 51°19.609 2°58.676 70.5 10.1 70 7.8
2007-08-30 07:58:57 51°19.615 2°58.7 70 10 69 7.8
2007-08-30 07:59:02 51°19.619 2°58.722 70.7 10.1 72 7.8
2007-08-30 07:59:06 51°19.622 2°58.739 71.7 10.1 72 7.7
2007-08-30 07:59:12 51°19.627 2°58.764 71.9 10 72 7.8
2007-08-30 07:59:16 51°19.63 2°58.781 73 10 73 7.8
2007-08-30 07:59:22 51°19.635 2°58.806 72.8 10 72 7.9
2007-08-30 07:59:27 51°19.639 2°58.827 72.4 10 72 7.8
2007-08-30 07:59:31 51°19.643 2°58.844 72.1 10.1 70 7.7
2007-08-30 07:59:37 51°19.649 2°58.87 71.4 10.1 72 7.8
2007-08-30 07:59:42 51°19.653 2°58.891 71.9 10.1 72 7.8
2007-08-30 07:59:46 51°19.656 2°58.908 73 10.2 73 7.8
2007-08-30 07:59:52 51°19.661 2°58.934 72.9 10.1 74 7.7
2007-08-30 07:59:56 51°19.664 2°58.951 73.3 10 73 7.8
2007-08-30 08:00:02 51°19.67 2°58.976 72.6 10.1 71 7.8
2007-08-30 08:00:06 51°19.673 2°58.993 71.2 10.1 70 7.7
2007-08-30 08:00:12 51°19.68 2°59.017 69.7 10 68 7.7
2007-08-30 08:00:17 51°19.685 2°59.037 69.2 10 68 7.7
2007-08-30 08:00:22 51°19.691 2°59.058 68.2 10 66 7.7
2007-08-30 08:00:26 51°19.695 2°59.074 67.5 10 66 7.7
2007-08-30 08:00:32 51°19.702 2°59.098 67.3 10 66 7.7
2007-08-30 08:00:37 51°19.707 2°59.119 67.2 10 67 7.8
2007-08-30 08:00:42 51°19.713 2°59.139 67.6 10 67 7.8
2007-08-30 08:00:46 51°19.717 2°59.156 68.4 10.1 70 7.8
2007-08-30 08:00:50 51°19.721 2°59.172 69.7 10.2 68 7.7
2007-08-30 08:00:57 51°19.728 2°59.202 70.4 10.1 71 7.7
2007-08-30 08:01:02 51°19.732 2°59.223 71.2 10.1 72 7.9
2007-08-30 08:01:06 51°19.736 2°59.24 71.7 10.1 71 7.7
2007-08-30 08:01:11 51°19.74 2°59.261 71.4 10.1 72 7.6
2007-08-30 08:01:17 51°19.746 2°59.287 71.9 10.1 70 7.7
2007-08-30 08:01:22 51°19.75 2°59.308 71.9 10.1 72 7.7
2007-08-30 08:01:26 51°19.754 2°59.325 71.8 10.1 71 7.7
2007-08-30 08:01:32 51°19.759 2°59.35 71.9 10.1 71 7.8
2007-08-30 08:01:36 51°19.763 2°59.367 71.9 10.1 70 7.5
2007-08-30 08:01:42 51°19.768 2°59.392 71.4 10.1 71 7.6
2007-08-30 08:01:47 51°19.774 2°59.412 70.6 10 67 7.6
2007-08-30 08:01:51 51°19.778 2°59.429 69.2 10 69 7.6
2007-08-30 08:01:57 51°19.785 2°59.454 68.9 10 66 7.7
2007-08-30 08:02:02 51°19.79 2°59.474 68 10.1 67 7.6
2007-08-30 08:02:06 51°19.795 2°59.49 67.5 10 64 7.6
2007-08-30 08:02:12 51°19.801 2°59.515 67.5 10 68 7.7
2007-08-30 08:02:17 51°19.807 2°59.535 67.5 10 65 7.7
2007-08-30 08:02:22 51°19.812 2°59.555 67.1 10 67 7.7
2007-08-30 08:02:26 51°19.817 2°59.571 67.9 10 66 7.7
2007-08-30 08:02:32 51°19.824 2°59.596 67.5 10 66 7.7
2007-08-30 08:02:37 51°19.829 2°59.616 68.2 10 69 -999
2007-08-30 08:02:42 51°19.834 2°59.637 68.8 10 67 7.7
2007-08-30 08:02:46 51°19.838 2°59.654 69.9 10.1 71 7.8
2007-08-30 08:02:52 51°19.843 2°59.679 70.4 10.2 70 7.6
2007-08-30 08:02:57 51°19.848 2°59.7 71.8 10.1 72 7.7
2007-08-30 08:03:02 51°19.852 2°59.722 72.2 10.1 73 7.7
2007-08-30 08:03:07 51°19.856 2°59.743 73 10.1 72 7.7
2007-08-30 08:03:11 51°19.86 2°59.76 72.7 10.1 71 7.7
2007-08-30 08:03:17 51°19.864 2°59.786 72.8 10.1 74 7.7
2007-08-30 08:03:22 51°19.869 2°59.807 72.8 10.1 70 7.7
2007-08-30 08:03:26 51°19.873 2°59.824 72.1 10.1 71 7.8
2007-08-30 08:03:32 51°19.878 2°59.849 72.4 10.2 72 7.7
2007-08-30 08:03:36 51°19.883 2°59.865 71.2 10 66 7.7
2007-08-30 08:03:42 51°19.888 2°59.891 70.2 10.1 71 5.5
2007-08-30 08:03:47 51°19.894 2°59.911 69.2 10.1 64 7.6
2007-08-30 08:03:52 51°19.899 2°59.932 67.9 10 69 7.6
2007-08-30 08:03:56 51°19.904 2°59.948 69 10 66 7.6
2007-08-30 08:04:02 51°19.91 2°59.973 68.2 10 69 7.6
2007-08-30 08:04:07 51°19.915 2°59.993 70 10 68 7.6
2007-08-30 08:04:12 51°19.92 3°0.014 69.8 10.1 69 7.6
2007-08-30 08:04:16 51°19.924 3°0.031 70.6 10.1 70 7.6
2007-08-30 08:04:22 51°19.929 3°0.056 71.1 10.1 70 7.7
2007-08-30 08:04:26 51°19.933 3°0.073 71.3 10.1 70 7.6
2007-08-30 08:04:31 51°19.938 3°0.093 70.9 10.1 70 7.6
2007-08-30 08:04:37 51°19.944 3°0.119 71.3 10.2 71 7.7
2007-08-30 08:04:42 51°19.949 3°0.14 70.9 10.1 69 7.6
2007-08-30 08:04:46 51°19.952 3°0.157 71.1 10.1 72 7.6
2007-08-30 08:04:52 51°19.959 3°0.182 70.3 10.2 69 7.7
2007-08-30 08:04:57 51°19.964 3°0.203 70 10.1 69 7.6
2007-08-30 08:05:02 51°19.968 3°0.224 70.4 10.2 70 7.7
2007-08-30 08:05:06 51°19.973 3°0.24 69.3 10.1 66 7.7
2007-08-30 08:05:12 51°19.98 3°0.265 68.8 10.1 68 7.6
2007-08-30 08:05:17 51°19.985 3°0.286 67.8 10.1 67 7.7
2007-08-30 08:05:22 51°19.991 3°0.306 67.6 10.2 66 7.7
2007-08-30 08:05:26 51°19.995 3°0.323 67.4 10.2 66 7.6
2007-08-30 08:05:31 51°20.001 3°0.343 67.1 10.2 67 7.6
2007-08-30 08:05:37 51°20.008 3°0.368 67.2 10.2 66 7.6
2007-08-30 08:05:42 51°20.013 3°0.389 67.5 10.2 67 7.6
2007-08-30 08:05:46 51°20.017 3°0.406 68.2 10.2 69 7.6
2007-08-30 08:05:52 51°20.023 3°0.431 69.6 10.2 69 7.6
2007-08-30 08:05:56 51°20.027 3°0.448 70.2 10.2 70 7.6
2007-08-30 08:06:02 51°20.032 3°0.474 71.1 10.2 73 7.6
2007-08-30 08:06:07 51°20.036 3°0.496 73 10.2 74 7.6
2007-08-30 08:06:11 51°20.039 3°0.513 73.7 10.2 74 7.7
2007-08-30 08:06:17 51°20.043 3°0.54 74.4 10.3 77 7.6
2007-08-30 08:06:22 51°20.047 3°0.561 75.2 10.1 74 7.6
2007-08-30 08:06:26 51°20.049 3°0.579 74.4 10.2 76 5.5
2007-08-30 08:06:32 51°20.055 3°0.605 73.9 10.2 70 7.6
2007-08-30 08:06:36 51°20.059 3°0.621 71.4 10.1 71 5.6
2007-08-30 08:06:42 51°20.065 3°0.646 71.3 10.1 70 7.6
2007-08-30 08:06:47 51°20.07 3°0.667 70.2 10.1 68 7.6
2007-08-30 08:06:52 51°20.075 3°0.688 69.6 10 70 7.5
2007-08-30 08:06:57 51°20.08 3°0.709 70.4 10.1 70 7.5
2007-08-30 08:07:02 51°20.085 3°0.73 70.1 10.1 69 7.6
2007-08-30 08:07:06 51°20.088 3°0.747 70.4 10.2 72 7.6
2007-08-30 08:07:12 51°20.094 3°0.773 71.7 10.2 70 7.5
2007-08-30 08:07:17 51°20.099 3°0.794 70.9 10.1 70 7.6
2007-08-30 08:07:22 51°20.103 3°0.815 71.5 10.1 72 7.6
2007-08-30 08:07:26 51°20.107 3°0.832 71.8 10.2 69 7.6
2007-08-30 08:07:32 51°20.112 3°0.858 71.2 10.2 72 7.6
2007-08-30 08:07:37 51°20.117 3°0.879 71.8 10.2 72 7.6
2007-08-30 08:07:42 51°20.12 3°0.901 73.1 10.3 74 7.7
2007-08-30 08:07:47 51°20.124 3°0.923 73.5 10.2 74 7.6
2007-08-30 08:07:51 51°20.127 3°0.94 75.1 10.2 75 7.6
2007-08-30 08:07:57 51°20.132 3°0.967 74.8 10.3 74 7.6
2007-08-30 08:08:02 51°20.136 3°0.988 74.7 10.2 74 7.7
2007-08-30 08:08:06 51°20.139 3°1.006 74.7 10.3 76 7.6
2007-08-30 08:08:12 51°20.144 3°1.032 74.7 10.2 72 7.4
2007-08-30 08:08:16 51°20.147 3°1.049 73.7 10.2 75 7.5
2007-08-30 08:08:22 51°20.153 3°1.074 73 10.1 69 7.5
2007-08-30 08:08:27 51°20.157 3°1.095 72.5 10.1 73 7.6
2007-08-30 08:08:32 51°20.162 3°1.116 71.2 10 68 7.5
2007-08-30 08:08:36 51°20.166 3°1.133 70.2 10 69 7.7
2007-08-30 08:08:42 51°20.172 3°1.157 69 10 67 7.6
2007-08-30 08:08:47 51°20.178 3°1.178 68.9 10.1 68 7.6
2007-08-30 08:08:52 51°20.183 3°1.198 68.5 10 68 7.6
2007-08-30 08:08:57 51°20.189 3°1.218 68.3 10 67 7.6
2007-08-30 08:09:02 51°20.194 3°1.239 67.9 10 67 7.6
2007-08-30 08:09:06 51°20.198 3°1.255 68.3 10 68 7.6
2007-08-30 08:09:12 51°20.205 3°1.279 68.2 10 67 7.6
2007-08-30 08:09:17 51°20.21 3°1.299 68.9 10 68 7.6
2007-08-30 08:09:22 51°20.215 3°1.32 69 10 69 7.6
2007-08-30 08:09:26 51°20.22 3°1.336 68.9 10 68 7.6
2007-08-30 08:09:32 51°20.226 3°1.362 70.1 10 69 7.6
2007-08-30 08:09:37 51°20.23 3°1.382 70.1 10 70 7.6
2007-08-30 08:09:42 51°20.235 3°1.403 69.7 9.9 68 7.5
2007-08-30 08:09:46 51°20.239 3°1.419 69.9 10 69 7.7
2007-08-30 08:09:51 51°20.244 3°1.44 69.3 10 67 7.6
2007-08-30 08:09:57 51°20.25 3°1.465 70 10 70 7.6
2007-08-30 08:10:02 51°20.255 3°1.485 70 10 69 7.6
2007-08-30 08:10:07 51°20.259 3°1.506 70.4 10 72 7.7
2007-08-30 08:10:11 51°20.263 3°1.523 71.5 9.9 70 7.6
2007-08-30 08:10:17 51°20.268 3°1.548 71.7 10 72 7.7
2007-08-30 08:10:22 51°20.273 3°1.569 72.5 10.1 72 7.7
2007-08-30 08:10:27 51°20.277 3°1.591 72.7 10 73 7.7
2007-08-30 08:10:31 51°20.28 3°1.608 72.7 10 74 7.6
2007-08-30 08:10:37 51°20.285 3°1.633 73.1 10 72 7.6
2007-08-30 08:10:42 51°20.289 3°1.655 73.3 10 76 7.6
2007-08-30 08:10:46 51°20.292 3°1.672 74 10.1 74 7.6
2007-08-30 08:10:52 51°20.296 3°1.698 74.7 10.1 76 7.6
2007-08-30 08:10:56 51°20.299 3°1.715 73.9 10 72 7.6
2007-08-30 08:11:02 51°20.304 3°1.74 74 10.1 75 5.5
2007-08-30 08:11:07 51°20.308 3°1.761 73.3 10 70 7.7
2007-08-30 08:11:12 51°20.313 3°1.782 71.1 10 71 7.5
2007-08-30 08:11:17 51°20.318 3°1.803 71.1 10 69 7.6
2007-08-30 08:11:22 51°20.323 3°1.824 69.6 10 69 7.6
2007-08-30 08:11:26 51°20.327 3°1.84 69.8 10 69 7.6
2007-08-30 08:11:32 51°20.333 3°1.865 69.6 10.1 67 7.6
2007-08-30 08:11:37 51°20.338 3°1.886 69.2 10 69 7.6
2007-08-30 08:11:42 51°20.344 3°1.906 69.1 10.1 68 7.7
2007-08-30 08:11:46 51°20.348 3°1.923 69.1 10.1 70 7.7
2007-08-30 08:11:52 51°20.354 3°1.948 69 10.1 68 7.7
2007-08-30 08:11:57 51°20.359 3°1.969 69.1 10 68 7.7
2007-08-30 08:12:02 51°20.364 3°1.99 69.6 10.1 70 7.6
2007-08-30 08:12:06 51°20.368 3°2.007 70.3 10.1 69 7.6
2007-08-30 08:12:12 51°20.373 3°2.032 71.1 10.1 73 7.6
2007-08-30 08:12:17 51°20.377 3°2.053 72.2 10.1 72 7.7
2007-08-30 08:12:22 51°20.381 3°2.075 72.3 10.2 74 7.8
2007-08-30 08:12:27 51°20.385 3°2.097 73.2 10.1 73 7.7
2007-08-30 08:12:32 51°20.388 3°2.118 73.4 10.2 75 7.8
2007-08-30 08:12:37 51°20.392 3°2.14 74.3 10.2 75 7.7
2007-08-30 08:12:42 51°20.396 3°2.162 74 10.2 74 7.7
2007-08-30 08:12:47 51°20.4 3°2.183 73.5 10.1 73 7.7
2007-08-30 08:12:51 51°20.403 3°2.2 73.1 10.1 75 7.7
2007-08-30 08:12:57 51°20.408 3°2.226 72.5 10.2 71 7.7
2007-08-30 08:13:02 51°20.413 3°2.247 71.8 10.1 73 7.7
2007-08-30 08:13:06 51°20.416 3°2.264 71.7 10 71 7.6
2007-08-30 08:13:12 51°20.421 3°2.29 71.7 10.1 72 7.7
2007-08-30 08:13:16 51°20.426 3°2.306 70.4 10.1 68 7.7
2007-08-30 08:13:22 51°20.431 3°2.332 69.8 10.1 71 7.7
2007-08-30 08:13:27 51°20.436 3°2.352 69.6 10.1 69 7.6
2007-08-30 08:13:32 51°20.44 3°2.374 70.1 10.2 71 7.6
2007-08-30 08:13:37 51°20.445 3°2.395 69.6 10.1 69 7.6
2007-08-30 08:13:42 51°20.45 3°2.416 70 10.1 71 7.7
2007-08-30 08:13:46 51°20.454 3°2.433 70.7 10.2 72 7.7
2007-08-30 08:13:52 51°20.459 3°2.459 71 10.2 71 7.7
2007-08-30 08:13:57 51°20.463 3°2.48 71 10.2 72 7.7
2007-08-30 08:14:02 51°20.468 3°2.502 71.9 10.2 72 7.8
2007-08-30 08:14:06 51°20.471 3°2.52 72.6 10.3 75 7.8
2007-08-30 08:14:12 51°20.476 3°2.545 72.7 10.2 71 7.7
2007-08-30 08:14:17 51°20.48 3°2.567 72.5 10.2 75 7.6
2007-08-30 08:14:22 51°20.484 3°2.589 72.8 10.3 72 7.7
2007-08-30 08:14:26 51°20.488 3°2.606 71.8 10.2 72 7.7
2007-08-30 08:14:32 51°20.493 3°2.631 71.8 10.2 71 7.8
2007-08-30 08:14:37 51°20.498 3°2.652 70.6 10.2 70 7.8
2007-08-30 08:14:42 51°20.502 3°2.674 70.4 10.2 70 7.8
2007-08-30 08:14:46 51°20.506 3°2.69 69.2 10.2 68 7.7
2007-08-30 08:14:52 51°20.512 3°2.716 69.4 10.2 70 7.8
2007-08-30 08:14:57 51°20.517 3°2.737 69 10.3 70 7.8
2007-08-30 08:15:02 51°20.522 3°2.758 69.6 10.2 70 7.7
2007-08-30 08:15:07 51°20.526 3°2.78 70.1 10.2 72 7.8
2007-08-30 08:15:11 51°20.53 3°2.797 71.1 10.2 72 7.7
2007-08-30 08:15:17 51°20.535 3°2.823 71.8 10.2 74 7.7
2007-08-30 08:15:22 51°20.538 3°2.845 72.9 10.1 75 7.5
2007-08-30 08:15:27 51°20.543 3°2.866 73.8 10.2 73 7.7
2007-08-30 08:15:32 51°20.546 3°2.888 73.3 10.2 75 7.6
2007-08-30 08:15:36 51°20.55 3°2.905 73.5 10.1 74 7.6
2007-08-30 08:15:42 51°20.554 3°2.931 74 10.2 75 7.6
2007-08-30 08:15:47 51°20.557 3°2.953 74 10.2 75 7.6
2007-08-30 08:15:52 51°20.561 3°2.975 73.5 10.1 73 7.7
2007-08-30 08:15:57 51°20.565 3°2.996 72.9 10.2 73 8
2007-08-30 08:16:02 51°20.57 3°3.018 72.2 10.2 72 7.9
2007-08-30 08:16:06 51°20.574 3°3.034 71.1 10.2 70 7.7
2007-08-30 08:16:12 51°20.579 3°3.06 70.4 10.2 70 7.7
2007-08-30 08:16:17 51°20.584 3°3.081 69.7 10.2 71 7.6
2007-08-30 08:16:22 51°20.589 3°3.103 70 10.2 71 7.7
2007-08-30 08:16:26 51°20.592 3°3.12 70.8 10.1 73 7.7
2007-08-30 08:16:32 51°20.597 3°3.146 72.2 10.2 73 7.7
2007-08-30 08:16:37 51°20.601 3°3.168 72 10.2 73 7.9
2007-08-30 08:16:42 51°20.604 3°3.189 72.3 10.2 74 7.9
2007-08-30 08:16:46 51°20.608 3°3.207 73.2 10.3 74 7.7
2007-08-30 08:16:52 51°20.613 3°3.233 72.5 10.2 72 7.7
2007-08-30 08:16:57 51°20.617 3°3.255 71.8 10.3 74 7.7
2007-08-30 08:17:02 51°20.622 3°3.276 70.9 10.2 70 7.7
2007-08-30 08:17:07 51°20.627 3°3.297 69.7 10.2 71 7.6
2007-08-30 08:17:11 51°20.631 3°3.314 69.6 10.2 70 7.6
2007-08-30 08:17:17 51°20.637 3°3.34 69.2 10.3 70 7.7
2007-08-30 08:17:22 51°20.642 3°3.361 69.5 10.2 71 7.7
2007-08-30 08:17:26 51°20.645 3°3.379 70.1 10.3 71 7.7
2007-08-30 08:17:32 51°20.65 3°3.405 70.5 10.3 72 7.8
2007-08-30 08:17:36 51°20.654 3°3.422 71.2 10.4 72 7.8
2007-08-30 08:17:42 51°20.659 3°3.448 70.7 10.3 72 7.8
2007-08-30 08:17:47 51°20.663 3°3.47 71.6 10.3 73 7.7
2007-08-30 08:17:52 51°20.667 3°3.492 72.3 10.4 74 7.7
2007-08-30 08:17:57 51°20.671 3°3.514 72.4 10.4 73 7.8
2007-08-30 08:18:02 51°20.675 3°3.536 72.7 10.4 75 7.7
2007-08-30 08:18:07 51°20.679 3°3.558 73.1 10.4 73 7.7
2007-08-30 08:18:12 51°20.683 3°3.581 72.7 10.4 75 7.9
2007-08-30 08:18:17 51°20.687 3°3.603 72.6 10.4 74 7.8
2007-08-30 08:18:22 51°20.692 3°3.624 72.5 10.4 73 7.7
2007-08-30 08:18:26 51°20.696 3°3.642 70.7 10.3 70 7.8
2007-08-30 08:18:32 51°20.7 3°3.668 70.4 10.4 74 7.9
2007-08-30 08:18:37 51°20.706 3°3.689 70.5 10.3 69 7.8
2007-08-30 08:18:42 51°20.711 3°3.711 68.7 10.4 70 7.9
2007-08-30 08:18:46 51°20.715 3°3.728 69 10.4 70 7.9
2007-08-30 08:18:52 51°20.721 3°3.754 69 10.4 71 7.9
2007-08-30 08:18:57 51°20.725 3°3.776 69.5 10.4 72 7.8
2007-08-30 08:19:02 51°20.73 3°3.798 70.3 10.4 72 7.7
2007-08-30 08:19:07 51°20.734 3°3.82 71.1 10.4 72 7.9
2007-08-30 08:19:11 51°20.738 3°3.838 71.1 10.4 72 7.7
2007-08-30 08:19:17 51°20.743 3°3.864 71.1 10.4 72 7.7
2007-08-30 08:19:22 51°20.748 3°3.886 70.8 10.4 72 7.9
2007-08-30 08:19:26 51°20.751 3°3.904 71.7 10.5 73 7.8
2007-08-30 08:19:32 51°20.756 3°3.931 72.2 10.4 74 7.9
2007-08-30 08:19:36 51°20.758 3°3.949 73.5 10.5 76 7.8
2007-08-30 08:19:42 51°20.763 3°3.976 73.7 10.5 74 7.9
2007-08-30 08:19:47 51°20.766 3°3.998 73.8 10.5 77 7.9
2007-08-30 08:19:52 51°20.77 3°4.02 74.4 10.4 76 7.7
2007-08-30 08:19:57 51°20.773 3°4.043 75.2 10.6 76 7.8
2007-08-30 08:20:02 51°20.777 3°4.066 74.2 10.6 75 7.8
2007-08-30 08:20:07 51°20.781 3°4.088 73.3 10.4 74 7.9
2007-08-30 08:20:12 51°20.786 3°4.11 72.5 10.5 72 7.8
2007-08-30 08:20:17 51°20.79 3°4.132 71.6 10.5 72 7.9
2007-08-30 08:20:22 51°20.796 3°4.154 69.8 10.4 70 7.8
2007-08-30 08:20:26 51°20.799 3°4.172 69.8 10.5 72 7.8
2007-08-30 08:20:32 51°20.805 3°4.198 69.2 10.5 69 7.7
2007-08-30 08:20:37 51°20.81 3°4.22 70.4 10.5 72 7.8
2007-08-30 08:20:42 51°20.814 3°4.242 70.4 10.5 71 7.8
2007-08-30 08:20:46 51°20.817 3°4.26 71.5 10.5 74 7.9
2007-08-30 08:20:52 51°20.823 3°4.287 72.5 10.6 74 7.8
2007-08-30 08:20:57 51°20.827 3°4.31 72.9 10.6 74 7.9
2007-08-30 08:21:02 51°20.83 3°4.332 73.3 10.7 76 7.9
2007-08-30 08:21:06 51°20.833 3°4.35 73.5 10.6 74 7.9
2007-08-30 08:21:12 51°20.838 3°4.378 73.8 10.6 75 7.8
2007-08-30 08:21:17 51°20.842 3°4.4 73.6 10.6 74 7.8
2007-08-30 08:21:22 51°20.846 3°4.423 72.9 10.6 73 7.8
2007-08-30 08:21:27 51°20.851 3°4.445 71.2 10.5 71 7.6
2007-08-30 08:21:31 51°20.855 3°4.462 70.5 10.4 71 7.6
2007-08-30 08:21:37 51°20.861 3°4.488 69.6 10.5 69 7.8
2007-08-30 08:21:42 51°20.867 3°4.51 68.2 10.4 69 7.9
2007-08-30 08:21:46 51°20.871 3°4.527 68.3 10.5 68 7.9
2007-08-30 08:21:52 51°20.878 3°4.553 68 10.6 68 7.9
2007-08-30 08:21:56 51°20.882 3°4.57 67.8 10.5 69 7.8
2007-08-30 08:22:02 51°20.887 3°4.596 68.6 10.5 69 7.9
2007-08-30 08:22:07 51°20.892 3°4.619 69.6 10.5 71 7.9
2007-08-30 08:22:12 51°20.896 3°4.641 71.3 10.5 73 7.7
2007-08-30 08:22:17 51°20.9 3°4.664 72.4 10.6 75 7.8
2007-08-30 08:22:22 51°20.904 3°4.686 73.4 10.7 76 7.8
2007-08-30 08:22:27 51°20.907 3°4.709 75.1 10.6 77 8
2007-08-30 08:22:32 51°20.909 3°4.733 76.8 10.6 81 8
2007-08-30 08:22:37 51°20.912 3°4.756 78.2 10.7 80 8
2007-08-30 08:22:42 51°20.914 3°4.78 78.9 10.8 81 7.9
2007-08-30 08:22:47 51°20.917 3°4.803 79.1 10.7 79 7.9
2007-08-30 08:22:52 51°20.919 3°4.826 78.5 10.7 81 7.9
2007-08-30 08:22:57 51°20.922 3°4.849 78.3 10.7 78 7.9
2007-08-30 08:23:02 51°20.925 3°4.873 78.9 10.7 81 7.9
2007-08-30 08:23:06 51°20.927 3°4.891 78.3 10.5 78 7.8
2007-08-30 08:23:12 51°20.931 3°4.918 77.7 10.6 79 7.9
2007-08-30 08:23:17 51°20.934 3°4.941 76.5 10.6 76 7.9
2007-08-30 08:23:22 51°20.938 3°4.964 74.7 10.5 75 7.9
2007-08-30 08:23:26 51°20.94 3°4.982 75.6 10.6 78 7.9
2007-08-30 08:23:32 51°20.945 3°5.009 75 10.5 74 7.9
2007-08-30 08:23:37 51°20.948 3°5.032 75.2 10.5 78 7.9
2007-08-30 08:23:42 51°20.952 3°5.054 74.9 10.5 74 7.9
2007-08-30 08:23:47 51°20.955 3°5.077 75 10.6 77 8
2007-08-30 08:23:51 51°20.959 3°5.095 74.9 10.6 75 7.9
2007-08-30 08:23:57 51°20.963 3°5.122 74.6 10.6 76 7.9
2007-08-30 08:24:02 51°20.967 3°5.145 74.7 10.5 74 7.9
2007-08-30 08:24:06 51°20.968 3°5.163 75.2 10.6 78 7.9
2007-08-30 08:24:12 51°20.973 3°5.19 75.4 10.6 73 7.9
2007-08-30 08:24:16 51°20.976 3°5.209 74.7 10.6 78 7.9
2007-08-30 08:24:22 51°20.98 3°5.236 75.3 10.5 74 8
2007-08-30 08:24:27 51°20.984 3°5.259 75.2 10.6 77 7.9
2007-08-30 08:24:32 51°20.988 3°5.281 74.7 10.6 74 7.9
2007-08-30 08:24:37 51°20.992 3°5.304 74.9 10.7 76 8
2007-08-30 08:24:42 51°20.995 3°5.327 75.5 10.8 76 8.1
2007-08-30 08:24:47 51°20.999 3°5.35 75.3 10.7 75 8